Time;durP1;ratioP1;P1;durP2;ratioP2;P2;SDS_P1;SDS_P2;PMS_P1;PMS_P2;Temp;Humidity;BMP_temperature;BMP_pressure;BME280_temperature;BME280_humidity;BME280_pressure;Samples;Min_cycle;Max_cycle;Signal;HPM_P1;HPM_P2
2022/11/18 00:01:21;;;;;;;16.40;10.85;;;;;;;0.65;72.39;100680.50;1702642;82;21209;-83
2022/11/18 00:03:49;;;;;;;14.63;9.43;;;;;;;0.70;72.33;100680.39;1686073;83;21070;-83
2022/11/18 00:06:19;;;;;;;14.63;9.93;;;;;;;0.71;72.29;100675.73;1705186;82;21035;-83
2022/11/18 00:08:46;;;;;;;16.27;9.90;;;;;;;0.73;72.26;100671.91;1681048;84;21103;-83
2022/11/18 00:14:18;;;;;;;17.05;10.85;;;;;;;0.87;72.44;100671.50;1715769;81;21085;-83
2022/11/18 00:16:33;;;;;;;18.70;12.88;;;;;;;0.91;72.42;100666.59;1706003;81;33682;-83
2022/11/18 00:19:00;;;;;;;19.12;13.15;;;;;;;0.95;72.45;100662.08;1720798;81;21196;-84
2022/11/18 00:21:26;;;;;;;14.83;9.88;;;;;;;1.01;72.40;100667.16;1714549;81;21106;-83
2022/11/18 00:23:53;;;;;;;11.38;7.95;;;;;;;1.03;72.18;100665.14;1720106;81;22407;-84
2022/11/18 00:26:20;;;;;;;13.38;9.63;;;;;;;0.96;71.74;100661.30;1719419;81;21079;-83
2022/11/18 00:28:47;;;;;;;15.10;9.48;;;;;;;0.93;71.90;100657.62;1713517;81;21049;-83
2022/11/18 00:31:13;;;;;;;14.50;8.93;;;;;;;0.96;71.83;100657.81;1682000;83;21089;-83
2022/11/18 00:33:40;;;;;;;12.33;8.98;;;;;;;0.95;71.82;100654.72;1709289;82;21047;-83
2022/11/18 00:36:09;;;;;;;13.05;8.90;;;;;;;1.00;71.90;100656.31;1712768;81;22659;-83
2022/11/18 00:38:36;;;;;;;15.83;8.10;;;;;;;1.03;71.89;100644.82;1717077;81;21050;-85
2022/11/18 00:41:06;;;;;;;12.85;6.85;;;;;;;1.02;71.71;100647.82;1711754;81;21163;-84
2022/11/18 00:43:33;;;;;;;7.03;4.95;;;;;;;0.99;71.55;100646.33;1713676;81;21505;-85
2022/11/18 00:46:00;;;;;;;5.47;3.72;;;;;;;0.97;71.47;100642.74;1681994;83;21053;-84
2022/11/18 00:48:26;;;;;;;6.33;3.67;;;;;;;0.96;71.36;100647.45;1714767;81;21683;-85
2022/11/18 00:50:55;;;;;;;5.40;3.65;;;;;;;0.94;71.31;100647.77;1725475;81;21987;-84
2022/11/18 00:53:23;;;;;;;6.65;4.03;;;;;;;0.93;71.38;100645.55;1711986;81;21084;-83
2022/11/18 00:55:49;;;;;;;6.85;3.95;;;;;;;0.94;71.33;100639.58;1686594;83;21042;-84
2022/11/18 00:58:16;;;;;;;7.72;4.25;;;;;;;0.96;71.30;100639.67;1682602;83;21094;-84
2022/11/18 01:00:44;;;;;;;8.48;5.10;;;;;;;0.94;71.21;100638.69;1652951;85;21699;-84
2022/11/18 01:03:17;;;;;;;7.30;4.80;;;;;;;0.94;71.28;100639.58;1652266;84;21287;-83
2022/11/18 01:05:43;;;;;;;7.62;4.75;;;;;;;0.94;71.15;100636.10;1665828;83;21103;-83
2022/11/18 01:08:12;;;;;;;6.78;4.30;;;;;;;0.89;71.03;100635.80;1674201;83;22085;-83
2022/11/18 01:10:38;;;;;;;7.30;4.28;;;;;;;0.84;71.04;100630.72;1662402;83;21087;-84
2022/11/18 01:13:18;;;;;;;5.30;4.08;;;;;;;0.84;71.20;100628.13;1648017;83;21883;-84
2022/11/18 01:15:57;;;;;;;5.87;4.37;;;;;;;0.84;71.11;100628.54;1666376;83;21080;-84
2022/11/18 01:18:26;;;;;;;8.65;5.05;;;;;;;0.81;71.11;100624.08;1654703;83;21109;-85
2022/11/18 01:20:53;;;;;;;6.90;4.70;;;;;;;0.83;71.28;100622.47;1666561;83;21090;-84
2022/11/18 01:23:19;;;;;;;8.80;5.97;;;;;;;0.83;71.21;100621.59;1666397;83;21081;-84
2022/11/18 01:25:48;;;;;;;7.25;4.78;;;;;;;0.83;71.34;100616.00;1666049;83;22634;-84
2022/11/18 01:28:15;;;;;;;8.05;5.20;;;;;;;0.84;71.38;100625.54;1657692;82;21666;-83
2022/11/18 01:30:42;;;;;;;7.22;5.08;;;;;;;0.84;71.36;100622.95;1640190;85;21045;-83
2022/11/18 01:33:08;;;;;;;6.75;4.97;;;;;;;0.84;71.39;100625.95;1654189;83;21198;-82
2022/11/18 01:35:41;;;;;;;7.90;4.72;;;;;;;0.83;71.29;100624.17;1670655;83;21050;-85
2022/11/18 01:38:09;;;;;;;6.45;4.55;;;;;;;0.77;71.21;100622.98;1662685;83;21745;-83
2022/11/18 01:40:36;;;;;;;9.63;5.15;;;;;;;0.73;71.18;100617.50;1641404;83;21069;-83
2022/11/18 01:43:07;;;;;;;6.78;5.15;;;;;;;0.67;71.16;100626.20;1656477;82;21070;-83
2022/11/18 01:45:41;;;;;;;7.17;5.10;;;;;;;0.63;71.30;100622.92;1661688;83;21581;-83
2022/11/18 01:48:19;;;;;;;7.95;4.58;;;;;;;0.65;71.35;100620.03;1654930;83;21065;-82
2022/11/18 01:50:56;;;;;;;6.25;4.85;;;;;;;0.67;71.43;100614.13;1668352;83;21704;-83
2022/11/18 01:53:28;;;;;;;8.08;5.10;;;;;;;0.68;71.44;100613.76;1662797;83;21009;-83
2022/11/18 01:55:56;;;;;;;7.85;4.90;;;;;;;0.67;71.50;100608.06;1645524;83;20986;-83
2022/11/18 01:58:40;;;;;;;7.78;4.80;;;;;;;0.67;71.59;100614.13;1671244;83;21649;-83
2022/11/18 02:01:07;;;;;;;6.90;4.72;;;;;;;0.66;71.58;100612.36;1675108;83;21547;-83
2022/11/18 02:03:34;;;;;;;5.65;4.40;;;;;;;0.62;71.42;100606.87;1678319;83;21913;-82
2022/11/18 02:06:02;;;;;;;6.35;4.70;;;;;;;0.46;71.28;100609.80;1652024;85;21072;-83
2022/11/18 02:08:28;;;;;;;10.18;5.65;;;;;;;0.32;71.26;100604.14;1665430;84;21037;-83
2022/11/18 02:10:55;;;;;;;16.80;6.80;;;;;;;0.19;71.34;100603.79;1681293;83;21175;-83
2022/11/18 02:13:22;;;;;;;20.00;9.10;;;;;;;0.10;71.46;100600.61;1678777;83;21051;-83
2022/11/18 02:16:09;;;;;;;23.32;9.55;;;;;;;0.00;71.48;100600.42;1683544;83;21741;-82
2022/11/18 02:18:47;;;;;;;21.57;8.85;;;;;;;-0.14;71.48;100603.37;1681533;83;21386;-82
2022/11/18 02:21:38;;;;;;;17.67;8.35;;;;;;;-0.29;71.54;100600.69;1654741;84;21408;-82
2022/11/18 02:24:22;;;;;;;16.37;7.87;;;;;;;-0.37;71.74;100602.29;1678195;83;21070;-82
2022/11/18 02:27:20;;;;;;;21.97;10.40;;;;;;;-0.47;71.83;100602.97;1674897;83;21213;-83
2022/11/18 02:29:58;;;;;;;25.08;10.32;;;;;;;-0.51;71.96;100608.70;1656080;84;21814;-83
2022/11/18 02:32:46;;;;;;;18.48;7.75;;;;;;;-0.51;72.21;100612.98;1716191;82;21094;-83
2022/11/18 02:35:28;;;;;;;10.88;6.62;;;;;;;-0.46;72.32;100611.61;1700787;82;21511;-83
2022/11/18 02:38:19;;;;;;;11.83;6.28;;;;;;;-0.42;72.41;100608.42;1709121;81;21077;-84
2022/11/18 02:40:54;;;;;;;11.33;6.75;;;;;;;-0.37;72.39;100610.93;1710847;82;21133;-84
2022/11/18 02:43:28;;;;;;;11.53;6.72;;;;;;;-0.41;72.20;100608.95;1716974;81;21786;-84
2022/11/18 02:45:59;;;;;;;13.40;6.97;;;;;;;-0.48;72.16;100608.03;1708475;81;21058;-84
2022/11/18 02:48:26;;;;;;;12.35;7.30;;;;;;;-0.53;72.20;100610.70;1714060;81;21073;-83
2022/11/18 02:50:53;;;;;;;10.72;6.75;;;;;;;-0.54;72.30;100612.80;1711356;81;21137;-83
2022/11/18 02:53:20;;;;;;;11.90;6.72;;;;;;;-0.51;72.47;100617.75;1710333;82;21714;-84
2022/11/18 02:55:47;;;;;;;10.05;6.12;;;;;;;-0.46;72.46;100620.66;1711753;82;21164;-84
2022/11/18 02:58:15;;;;;;;12.28;6.10;;;;;;;-0.41;72.63;100619.28;1712429;81;21122;-84
2022/11/18 03:00:42;;;;;;;10.10;6.12;;;;;;;-0.33;72.65;100619.39;1711495;81;21330;-84
2022/11/18 03:03:31;;;;;;;9.25;6.08;;;;;;;-0.26;72.57;100622.00;1715169;82;21049;-84
2022/11/18 03:06:36;;;;;;;10.32;6.35;;;;;;;-0.18;72.69;100618.62;1703385;82;21062;-85
2022/11/18 03:09:19;;;;;;;7.60;5.47;;;;;;;-0.11;72.60;100619.48;1709893;82;21767;-84
2022/11/18 03:12:30;;;;;;;10.53;6.35;;;;;;;-0.07;72.54;100622.39;1711918;82;21043;-84
2022/11/18 03:15:22;;;;;;;10.98;6.17;;;;;;;-0.03;72.56;100624.38;1707394;82;21432;-86
2022/11/18 03:18:13;;;;;;;11.20;7.05;;;;;;;0.09;72.66;100640.20;1713876;81;21148;-83
2022/11/18 03:20:54;;;;;;;10.95;6.75;;;;;;;0.14;72.56;100644.00;1706993;82;21569;-84
2022/11/18 03:23:35;;;;;;;11.00;6.33;;;;;;;0.22;72.70;100623.37;1714097;81;21759;-84
2022/11/18 03:26:17;;;;;;;11.40;7.22;;;;;;;0.29;72.72;100624.68;1709157;82;21542;-84
2022/11/18 03:29:01;;;;;;;8.65;6.30;;;;;;;0.37;72.68;100622.17;1715857;81;21054;-84
2022/11/18 03:31:45;;;;;;;11.25;7.22;;;;;;;0.43;72.67;100629.02;1714407;82;21591;-84
2022/11/18 03:34:24;;;;;;;;;;;;;;;0.50;72.66;100630.32;1703746;81;21437;-83
2022/11/18 03:36:55;;;;;;;10.13;6.40;;;;;;;0.53;72.46;100624.94;1697747;82;21733;-84
2022/11/18 03:39:21;;;;;;;11.18;6.65;;;;;;;0.53;72.45;100627.94;1699507;82;21480;-86
2022/11/18 03:41:59;;;;;;;9.90;6.97;;;;;;;0.61;72.59;100636.19;1680262;82;21035;-87
2022/11/18 03:44:30;;;;;;;15.68;8.00;;;;;;;0.64;72.48;100631.17;1701381;82;21674;-85
2022/11/18 03:47:00;;;;;;;13.30;7.72;;;;;;;0.68;72.42;100641.84;1696008;82;21067;-86
2022/11/18 03:49:34;;;;;;;12.40;8.18;;;;;;;0.71;72.45;100636.87;1703069;82;23035;-86
2022/11/18 03:52:09;;;;;;;12.28;7.85;;;;;;;0.78;72.48;100636.83;1706185;82;21923;-86
2022/11/18 03:54:36;;;;;;;11.80;7.53;;;;;;;0.84;72.53;100640.20;1696381;82;21251;-87
2022/11/18 03:57:08;;;;;;;10.30;6.80;;;;;;;0.87;72.47;100640.41;1697282;82;21151;-86
2022/11/18 03:59:44;;;;;;;10.72;7.40;;;;;;;0.90;72.42;100632.80;1688916;83;21097;-85
2022/11/18 04:02:15;;;;;;;10.72;7.00;;;;;;;0.92;72.38;100641.18;1699138;82;21818;-86
2022/11/18 04:04:43;;;;;;;13.00;7.72;;;;;;;0.95;72.44;100639.17;1706945;82;21153;-86
2022/11/18 04:07:33;;;;;;;10.25;7.70;;;;;;;0.97;72.38;100637.16;1679042;83;21051;-86
2022/11/18 04:10:19;;;;;;;13.20;7.45;;;;;;;0.98;72.34;100639.37;1697658;82;21069;-85
2022/11/18 04:13:12;;;;;;;12.80;7.78;;;;;;;1.03;72.42;100640.93;1696535;82;21067;-85
2022/11/18 04:15:40;;;;;;;11.48;8.20;;;;;;;1.04;72.40;100643.63;1702875;82;21825;-86
2022/11/18 04:18:07;;;;;;;12.00;7.87;;;;;;;1.04;72.40;100646.22;1699054;82;21090;-86
2022/11/18 04:20:36;;;;;;;10.60;7.37;;;;;;;1.02;72.41;100646.53;1709895;82;21015;-85
2022/11/18 04:23:03;;;;;;;14.70;8.28;;;;;;;0.99;72.44;100645.03;1703247;82;21405;-85
2022/11/18 04:25:30;;;;;;;12.68;8.45;;;;;;;0.94;72.37;100641.28;1681940;83;21572;-84
2022/11/18 04:27:57;;;;;;;10.53;6.78;;;;;;;0.94;72.62;100643.87;1704625;82;22540;-85
2022/11/18 04:30:23;;;;;;;9.00;6.85;;;;;;;0.97;72.59;100644.92;1702361;82;21046;-85
2022/11/18 04:32:50;;;;;;;11.55;6.90;;;;;;;0.98;72.64;100644.55;1703488;82;21037;-85
2022/11/18 04:35:18;;;;;;;10.68;7.75;;;;;;;1.01;72.63;100642.12;1705903;82;20999;-85
2022/11/18 04:37:45;;;;;;;11.35;7.70;;;;;;;0.99;72.58;100650.21;1700244;82;21078;-85
2022/11/18 04:40:12;;;;;;;10.48;6.85;;;;;;;1.03;72.69;100647.41;1707448;82;22983;-86
2022/11/18 04:42:38;;;;;;;10.88;7.15;;;;;;;1.04;72.54;100645.33;1691532;82;22234;-86
2022/11/18 04:45:06;;;;;;;11.53;7.35;;;;;;;1.04;72.52;100645.33;1701792;82;21129;-85
2022/11/18 04:47:33;;;;;;;10.03;7.28;;;;;;;1.05;72.49;100644.51;1694311;82;21432;-85
2022/11/18 04:50:01;;;;;;;10.25;6.70;;;;;;;1.02;72.30;100644.34;1706291;82;21523;-86
2022/11/18 04:52:28;;;;;;;8.63;6.10;;;;;;;0.99;72.36;100644.14;1710669;82;22058;-85
2022/11/18 04:54:54;;;;;;;10.68;6.45;;;;;;;1.00;72.37;100643.36;1713094;82;21555;-83
2022/11/18 04:57:21;;;;;;;9.88;6.00;;;;;;;0.96;72.30;100635.38;1710014;82;21085;-86
2022/11/18 04:59:48;;;;;;;8.25;6.12;;;;;;;0.95;72.32;100637.46;1711991;82;21127;-86
2022/11/18 05:02:15;;;;;;;9.70;6.70;;;;;;;0.96;72.35;100634.09;1705242;82;21674;-85
2022/11/18 05:04:41;;;;;;;10.05;6.60;;;;;;;0.95;72.22;100634.88;1707228;82;22826;-86
2022/11/18 05:07:11;;;;;;;9.98;6.87;;;;;;;0.97;72.34;100638.45;1709353;82;21063;-84
2022/11/18 05:09:38;;;;;;;9.68;6.47;;;;;;;0.99;72.32;100642.44;1705164;82;21571;-84
2022/11/18 05:14:50;;;;;;;10.80;7.67;;;;;;;0.96;72.32;100638.38;1703281;82;21076;-87
2022/11/18 05:17:17;;;;;;;11.18;7.47;;;;;;;0.96;72.31;100637.97;1703717;82;21729;-88
2022/11/18 05:19:43;;;;;;;13.68;7.78;;;;;;;0.98;72.34;100636.78;1711768;82;21082;-84
2022/11/18 05:22:10;;;;;;;13.60;6.90;;;;;;;1.00;72.32;100642.06;1702719;82;21054;-84
2022/11/18 05:24:37;;;;;;;15.05;7.22;;;;;;;1.01;72.34;100646.02;1697830;82;21085;-83
2022/11/18 05:27:04;;;;;;;10.72;6.87;;;;;;;1.02;72.32;100644.34;1704732;82;21166;-84
2022/11/18 05:29:32;;;;;;;11.12;6.65;;;;;;;0.97;72.17;100646.22;1708002;82;21694;-85
2022/11/18 05:31:59;;;;;;;7.90;5.90;;;;;;;0.96;72.27;100644.45;1695339;82;21023;-84
2022/11/18 05:34:25;;;;;;;11.20;6.35;;;;;;;0.99;72.27;100640.25;1712594;81;21092;-84
2022/11/18 05:36:52;;;;;;;10.80;6.37;;;;;;;0.99;72.24;100643.73;1720627;81;21832;-82
2022/11/18 05:39:19;;;;;;;13.00;7.25;;;;;;;0.97;72.23;100652.70;1725256;81;21114;-81
2022/11/18 05:44:31;;;;;;;13.72;8.15;;;;;;;0.98;72.35;100643.26;1721129;81;21033;-82
2022/11/18 05:46:59;;;;;;;9.78;7.17;;;;;;;0.98;72.27;100638.07;1723953;81;21078;-82
2022/11/18 05:49:25;;;;;;;12.18;7.75;;;;;;;0.99;72.30;100639.84;1716155;82;21598;-82
2022/11/18 05:51:52;;;;;;;11.60;8.00;;;;;;;1.01;72.35;100638.23;1706063;82;21057;-82
2022/11/18 05:54:19;;;;;;;12.07;8.20;;;;;;;1.05;72.37;100649.69;1706066;82;21742;-84
2022/11/18 05:56:46;;;;;;;11.15;8.15;;;;;;;1.07;72.33;100655.86;1699492;82;21127;-83
2022/11/18 05:59:13;;;;;;;12.05;8.00;;;;;;;1.05;72.21;100654.88;1702714;82;21135;-85
2022/11/18 06:01:49;;;;;;;10.80;7.22;;;;;;;1.05;72.22;100660.06;1708650;82;21046;-84
2022/11/18 06:04:43;;;;;;;10.48;6.47;;;;;;;1.08;72.19;100661.15;1703348;82;21738;-89
2022/11/18 06:07:27;;;;;;;10.18;6.75;;;;;;;1.11;72.22;100658.76;1705079;82;21767;-84
2022/11/18 06:09:58;;;;;;;8.75;5.72;;;;;;;1.12;72.00;100657.94;1703037;82;21133;-82
2022/11/18 06:12:28;;;;;;;7.33;5.42;;;;;;;1.13;71.91;100669.23;1710283;82;21109;-81
2022/11/18 06:15:00;;;;;;;9.45;5.62;;;;;;;1.09;71.72;100668.52;1702653;82;21057;-82
2022/11/18 06:17:34;;;;;;;8.18;5.78;;;;;;;1.10;71.86;100670.32;1704711;82;21174;-81
2022/11/18 06:20:01;;;;;;;7.78;5.25;;;;;;;1.08;71.60;100674.52;1684196;82;21928;-81
2022/11/18 06:22:28;;;;;;;6.33;4.72;;;;;;;1.04;71.44;100673.44;1690137;83;21097;-81
2022/11/18 06:24:54;;;;;;;5.33;3.77;;;;;;;1.05;71.46;100681.72;1707204;82;21586;-84
2022/11/18 06:27:21;;;;;;;6.90;3.75;;;;;;;1.07;71.28;100692.16;1703503;82;21565;-86
2022/11/18 06:29:48;;;;;;;4.37;3.37;;;;;;;1.04;70.86;100688.98;1712460;82;21058;-84
2022/11/18 06:32:15;;;;;;;6.42;4.20;;;;;;;1.04;70.75;100688.98;1709459;82;22851;-85
2022/11/18 06:34:42;;;;;;;7.45;4.58;;;;;;;1.11;70.90;100691.57;1703985;82;21047;-87
2022/11/18 06:37:15;;;;;;;6.12;4.20;;;;;;;1.21;70.84;100694.33;1717156;82;21092;-85
2022/11/18 06:39:42;;;;;;;6.97;3.80;;;;;;;1.21;70.58;100696.50;1716462;82;21340;-85
2022/11/18 06:42:09;;;;;;;7.80;4.12;;;;;;;1.16;70.33;100698.83;1718029;82;21033;-85
2022/11/18 06:44:36;;;;;;;5.65;3.35;;;;;;;1.13;70.25;100700.34;1713461;82;22522;-85
2022/11/18 06:47:04;;;;;;;3.58;2.67;;;;;;;1.08;70.10;100700.44;1714487;82;21056;-85
2022/11/18 06:49:31;;;;;;;5.97;3.50;;;;;;;1.04;69.95;100703.65;1715429;82;21597;-85
2022/11/18 06:51:57;;;;;;;16.40;9.78;;;;;;;1.02;69.86;100706.14;1712849;82;21073;-85
2022/11/18 06:54:26;;;;;;;6.58;3.98;;;;;;;1.00;69.82;100704.27;1716878;82;21137;-84
2022/11/18 06:56:53;;;;;;;4.25;3.08;;;;;;;1.00;69.82;100709.45;1715707;82;23037;-86
2022/11/18 06:59:23;;;;;;;5.08;2.90;;;;;;;0.99;69.84;100717.59;1716021;82;21300;-86
2022/11/18 07:01:51;;;;;;;4.35;3.02;;;;;;;1.00;69.74;100715.93;1715716;82;21050;-85
2022/11/18 07:04:18;;;;;;;4.75;3.12;;;;;;;0.99;69.73;100713.71;1721297;81;21022;-87
2022/11/18 07:06:45;;;;;;;5.25;3.77;;;;;;;0.97;69.65;100717.50;1714553;82;21121;-86
2022/11/18 07:09:20;;;;;;;4.62;3.08;;;;;;;1.01;69.63;100711.22;1721149;81;21694;-85
2022/11/18 07:11:47;;;;;;;5.03;3.58;;;;;;;1.08;69.59;100713.41;1716907;81;21069;-84
2022/11/18 07:14:14;;;;;;;5.83;4.12;;;;;;;1.12;69.30;100720.16;1712392;82;21085;-81
2022/11/18 07:16:44;;;;;;;4.97;3.33;;;;;;;1.10;69.04;100720.46;1710289;81;21539;-84
2022/11/18 07:19:12;;;;;;;4.37;3.12;;;;;;;1.10;68.93;100717.87;1710496;81;21057;-85
2022/11/18 07:21:39;;;;;;;3.50;2.20;;;;;;;1.14;68.72;100710.77;1686665;83;22577;-86
2022/11/18 07:24:07;;;;;;;4.35;2.87;;;;;;;1.18;68.54;100727.83;1711421;82;21132;-87
2022/11/18 07:26:34;;;;;;;3.80;2.67;;;;;;;1.18;68.30;100727.41;1722240;82;21068;-85
2022/11/18 07:29:01;;;;;;;3.00;2.17;;;;;;;1.18;68.04;100718.75;1708262;82;22017;-88
2022/11/18 07:31:35;;;;;;;3.75;2.27;;;;;;;1.22;68.00;100722.94;1709290;82;21610;-86
2022/11/18 07:34:03;;;;;;;3.77;2.10;;;;;;;1.24;67.81;100727.82;1709497;82;22457;-87
2022/11/18 07:36:30;;;;;;;2.92;1.90;;;;;;;1.26;67.59;100731.41;1711907;81;21085;-85
2022/11/18 07:38:58;;;;;;;2.60;2.15;;;;;;;1.28;67.33;100725.91;1717511;81;21669;-86
2022/11/18 07:41:27;;;;;;;3.83;1.85;;;;;;;1.33;67.08;100724.87;1716092;81;21365;-88
2022/11/18 07:43:55;;;;;;;2.72;1.75;;;;;;;1.39;66.96;100730.84;1718344;81;21124;-85
2022/11/18 07:46:32;;;;;;;6.17;1.82;;;;;;;1.39;66.69;100725.28;1721884;81;21174;-88
2022/11/18 07:49:01;;;;;;;3.58;2.05;;;;;;;1.42;66.54;100731.04;1708941;81;21447;-87
2022/11/18 07:51:31;;;;;;;5.10;2.10;;;;;;;1.45;66.44;100733.42;1718617;81;21057;-85
2022/11/18 07:53:58;;;;;;;5.53;1.82;;;;;;;1.45;66.25;100731.23;1715332;81;21083;-86
2022/11/18 07:56:24;;;;;;;8.78;2.25;;;;;;;1.47;66.18;100736.12;1719784;81;21108;-86
2022/11/18 07:58:54;;;;;;;4.08;2.00;;;;;;;1.52;66.13;100737.27;1719313;82;21726;-86
2022/11/18 08:01:23;;;;;;;4.78;1.80;;;;;;;1.54;65.97;100743.48;1686934;82;21126;-86
2022/11/18 08:03:50;;;;;;;5.50;2.10;;;;;;;1.48;65.71;100742.70;1721379;81;21053;-84
2022/11/18 08:06:17;;;;;;;4.33;2.08;;;;;;;1.47;65.68;100737.41;1709362;81;21187;-86
2022/11/18 08:08:44;;;;;;;3.20;1.95;;;;;;;1.47;65.62;100737.41;1710923;81;21085;-86
2022/11/18 08:11:14;;;;;;;2.62;2.20;;;;;;;1.49;65.60;100742.29;1712514;81;21674;-86
2022/11/18 08:13:40;;;;;;;4.62;2.30;;;;;;;1.52;65.70;100742.45;1710577;81;21076;-86
2022/11/18 08:16:14;;;;;;;3.37;2.60;;;;;;;1.54;65.85;100751.27;1715489;81;21037;-86
2022/11/18 08:18:40;;;;;;;3.20;1.90;;;;;;;1.54;65.76;100759.05;1708916;81;25437;-86
2022/11/18 08:21:07;;;;;;;3.87;1.90;;;;;;;1.49;65.84;100760.45;1712945;81;21054;-86
2022/11/18 08:23:34;;;;;;;2.50;1.80;;;;;;;1.40;65.97;100768.96;1717375;81;21891;-87
2022/11/18 08:26:03;;;;;;;2.02;1.47;;;;;;;1.20;70.13;100766.41;1717750;82;21130;-85
2022/11/18 08:28:30;;;;;;;2.52;1.70;;;;;;;1.03;71.44;100757.16;1682502;83;21113;-87
2022/11/18 08:30:57;;;;;;;3.17;1.87;;;;;;;0.99;71.37;100762.07;1707416;81;21051;-87
2022/11/18 08:33:24;;;;;;;2.35;1.60;;;;;;;0.89;70.87;100756.70;1710856;81;21065;-84
2022/11/18 08:35:51;;;;;;;4.83;2.08;;;;;;;0.93;69.39;100767.77;1721895;81;21163;-88
2022/11/18 08:38:19;;;;;;;3.00;1.90;;;;;;;0.96;68.91;100752.01;1729517;81;21080;-85
2022/11/18 08:40:46;;;;;;;3.42;2.10;;;;;;;1.01;68.46;100757.88;1727583;81;21534;-85
2022/11/18 08:43:13;;;;;;;4.53;2.85;;;;;;;1.04;68.39;100756.79;1700896;81;21002;-86
2022/11/18 08:45:42;;;;;;;2.92;2.00;;;;;;;1.00;68.15;100754.40;1721684;81;21053;-86
2022/11/18 08:48:09;;;;;;;3.80;2.22;;;;;;;1.14;68.21;100766.92;1726087;81;21761;-85
2022/11/18 08:50:35;;;;;;;3.98;2.33;;;;;;;1.17;67.93;100765.83;1726772;81;21112;-86
2022/11/18 08:53:02;;;;;;;2.92;2.05;;;;;;;1.27;68.00;100759.52;1727083;81;21021;-86
2022/11/18 08:55:29;;;;;;;5.03;2.08;;;;;;;1.36;67.91;100765.27;1719542;81;21088;-86
2022/11/18 08:57:56;;;;;;;3.15;2.30;;;;;;;1.32;67.85;100759.00;1725755;81;21629;-85
2022/11/18 09:00:22;;;;;;;7.12;2.58;;;;;;;1.33;68.10;100749.14;1727028;81;21792;-86
2022/11/18 09:02:49;;;;;;;4.87;2.90;;;;;;;1.41;68.24;100740.53;1730133;81;21131;-86
2022/11/18 09:05:16;;;;;;;4.67;3.10;;;;;;;1.48;68.15;100746.97;1722655;81;21545;-86
2022/11/18 09:07:43;;;;;;;6.30;2.98;;;;;;;1.49;68.03;100752.26;1730489;81;21013;-86
2022/11/18 09:10:10;;;;;;;4.97;2.58;;;;;;;1.48;67.78;100753.08;1728908;81;22107;-87
2022/11/18 09:12:36;;;;;;;5.00;2.58;;;;;;;1.41;67.50;100756.47;1728717;81;22994;-86
2022/11/18 09:15:04;;;;;;;4.83;2.65;;;;;;;1.31;67.49;100758.89;1721526;81;21490;-86
2022/11/18 09:17:30;;;;;;;6.35;2.17;;;;;;;1.23;67.62;100751.94;1722143;81;21052;-86
2022/11/18 09:19:59;;;;;;;4.40;2.67;;;;;;;1.15;67.65;100739.80;1719031;81;21097;-86
2022/11/18 09:22:26;;;;;;;3.70;2.37;;;;;;;1.09;67.80;100735.91;1729231;81;21045;-87
2022/11/18 09:24:52;;;;;;;4.33;2.02;;;;;;;1.06;67.85;100739.22;1724526;81;21686;-86
2022/11/18 09:27:19;;;;;;;3.37;2.20;;;;;;;1.01;67.91;100739.73;1728833;81;21089;-86
2022/11/18 09:29:48;;;;;;;3.15;2.42;;;;;;;1.00;67.91;100747.03;1729434;81;21860;-86
2022/11/18 09:32:15;;;;;;;4.58;2.52;;;;;;;0.99;68.01;100742.63;1722471;81;21542;-88
2022/11/18 09:34:42;;;;;;;3.72;2.42;;;;;;;1.03;68.10;100744.61;1728515;81;21125;-86
2022/11/18 09:37:09;;;;;;;7.05;2.70;;;;;;;1.05;67.93;100743.92;1717842;81;21746;-87
2022/11/18 09:39:36;;;;;;;4.95;3.10;;;;;;;1.08;68.04;100749.28;1710630;82;21488;-87
2022/11/18 09:42:45;;;;;;;7.60;3.65;;;;;;;1.15;68.08;100747.98;1714794;82;21094;-87
2022/11/18 09:45:37;;;;;;;11.05;4.47;;;;;;;1.20;68.01;100749.14;1710315;82;21292;-87
2022/11/18 09:48:12;;;;;;;8.60;4.10;;;;;;;1.21;67.87;100741.87;1686427;82;21993;-89
2022/11/18 09:50:40;;;;;;;7.17;4.17;;;;;;;1.26;67.98;100744.37;1704129;82;21849;-87
2022/11/18 09:53:18;;;;;;;8.68;3.67;;;;;;;1.29;67.79;100741.94;1723721;82;21046;-87
2022/11/18 09:55:45;;;;;;;3.60;2.12;;;;;;;1.32;67.73;100738.66;1712027;82;21036;-87
2022/11/18 09:58:20;;;;;;;3.40;2.30;;;;;;;1.35;67.56;100739.75;1715877;82;21102;-86
2022/11/18 10:00:46;;;;;;;2.42;1.67;;;;;;;1.34;67.35;100733.17;1714906;82;21100;-87
2022/11/18 10:03:21;;;;;;;3.10;2.20;;;;;;;1.34;67.32;100728.87;1720033;81;21775;-89
2022/11/18 10:06:18;;;;;;;3.52;2.65;;;;;;;1.41;67.28;100738.31;1721354;81;21093;-87
2022/11/18 10:08:57;;;;;;;3.37;2.10;;;;;;;1.48;67.29;100736.59;1716246;81;21707;-88
2022/11/18 10:11:25;;;;;;;3.80;2.87;;;;;;;1.51;67.31;100733.79;1721073;81;21047;-88
2022/11/18 10:14:01;;;;;;;3.37;2.83;;;;;;;1.65;67.47;100737.62;1709427;81;21109;-86
2022/11/18 10:16:45;;;;;;;6.55;3.75;;;;;;;1.79;67.39;100736.76;1714176;82;23638;-87
2022/11/18 10:19:42;;;;;;;3.42;2.87;;;;;;;1.86;67.30;100738.00;1720246;81;21137;-85
2022/11/18 10:22:20;;;;;;;4.92;3.27;;;;;;;1.96;67.43;100736.88;1715580;81;21552;-85
2022/11/18 10:24:49;;;;;;;3.20;2.10;;;;;;;2.08;66.99;100738.87;1708664;81;21088;-89
2022/11/18 10:27:16;;;;;;;3.95;2.70;;;;;;;2.10;66.37;100738.56;1728383;81;21109;-90
2022/11/18 10:29:44;;;;;;;2.60;1.90;;;;;;;2.11;66.30;100742.55;1710497;82;21740;-88
2022/11/18 10:32:15;;;;;;;2.72;2.00;;;;;;;2.10;66.17;100743.38;1718977;81;21100;-90
2022/11/18 10:34:56;;;;;;;2.85;1.90;;;;;;;2.02;65.89;100748.50;1728681;81;21073;-85
2022/11/18 10:37:34;;;;;;;4.45;2.30;;;;;;;1.94;65.88;100744.56;1720160;81;21591;-86
2022/11/18 10:40:03;;;;;;;4.33;2.77;;;;;;;1.94;65.83;100747.16;1708461;82;21058;-87
2022/11/18 10:42:45;;;;;;;3.25;2.33;;;;;;;1.93;65.87;100746.66;1705136;82;21980;-85
2022/11/18 10:45:28;;;;;;;5.08;2.60;;;;;;;1.96;65.76;100749.86;1716690;82;21548;-84
2022/11/18 10:48:17;;;;;;;3.00;2.45;;;;;;;1.96;65.63;100749.86;1717592;82;21053;-87
2022/11/18 10:50:49;;;;;;;3.72;2.40;;;;;;;2.02;65.75;100752.39;1708834;82;21086;-85
2022/11/18 10:53:34;;;;;;;2.95;2.15;;;;;;;2.10;65.42;100755.44;1707032;82;21108;-86
2022/11/18 10:56:03;;;;;;;4.85;3.40;;;;;;;2.19;65.45;100752.09;1701903;82;21742;-84
2022/11/18 10:58:34;;;;;;;4.20;2.72;;;;;;;2.31;65.21;100754.53;1713378;82;22025;-85
2022/11/18 11:01:24;;;;;;;3.22;2.70;;;;;;;2.36;64.99;100757.38;1682618;82;21621;-84
2022/11/18 11:04:14;;;;;;;3.80;2.80;;;;;;;2.44;64.96;100754.42;1700810;82;21300;-89
2022/11/18 11:06:41;;;;;;;3.30;2.25;;;;;;;2.53;64.58;100764.05;1711867;82;21057;-86
2022/11/18 11:09:16;;;;;;;3.05;2.22;;;;;;;2.47;64.12;100764.98;1713744;82;22444;-88
2022/11/18 11:11:59;;;;;;;4.62;2.70;;;;;;;2.46;64.05;100760.61;1703584;82;21067;-85
2022/11/18 11:14:51;;;;;;;3.35;2.40;;;;;;;2.49;63.92;100765.07;1712666;82;21413;-87
2022/11/18 11:17:28;;;;;;;4.90;2.95;;;;;;;2.50;63.72;100766.88;1709428;82;21463;-85
2022/11/18 11:20:20;;;;;;;4.20;2.85;;;;;;;2.48;63.66;100769.80;1714574;82;21054;-86
2022/11/18 11:22:47;;;;;;;4.67;3.05;;;;;;;2.53;63.69;100767.95;1720784;82;21761;-86
2022/11/18 11:25:25;;;;;;;6.65;4.50;;;;;;;2.53;63.69;100760.16;1686342;82;22017;-82
2022/11/18 11:28:27;;;;;;;5.85;3.90;;;;;;;2.65;63.75;100769.45;1707001;82;21103;-89
2022/11/18 11:31:29;;;;;;;2.75;2.37;;;;;;;2.66;63.49;100766.92;1710764;82;21070;-86
2022/11/18 11:34:22;;;;;;;5.92;3.27;;;;;;;2.66;63.39;100766.92;1716575;82;21101;-81
2022/11/18 11:37:16;;;;;;;4.85;3.25;;;;;;;2.67;63.40;100768.73;1673363;83;21654;-81
2022/11/18 11:40:07;;;;;;;7.85;3.92;;;;;;;2.67;63.48;100767.42;1684088;83;21062;-83
2022/11/18 11:42:52;;;;;;;3.52;3.20;;;;;;;2.68;63.31;100766.63;1683269;83;21053;-81
2022/11/18 11:45:28;;;;;;;4.87;3.62;;;;;;;2.67;63.19;100771.73;1687073;83;21113;-82
2022/11/18 11:48:03;;;;;;;4.78;3.20;;;;;;;2.61;63.27;100770.98;1688184;83;21066;-82
2022/11/18 11:50:53;;;;;;;5.00;2.90;;;;;;;2.50;63.42;100766.88;1688730;83;21771;-82
2022/11/18 11:53:37;;;;;;;6.97;3.30;;;;;;;2.44;63.61;100772.99;1684765;83;21038;-82
2022/11/18 11:56:28;;;;;;;4.45;3.00;;;;;;;2.36;63.48;100782.94;1683234;83;21659;-82
2022/11/18 11:59:22;;;;;;;6.87;3.10;;;;;;;2.22;63.43;100779.55;1684239;84;21050;-83
2022/11/18 12:02:35;;;;;;;6.12;3.10;;;;;;;2.19;63.71;100781.95;1690919;83;22201;-82